Detall de PIREP

Printer-friendly versionPDF version

[2013/02/10 07:37:00]
Flight IATA:CT3407
Pilot Number:012
Company ICAO:CAT
Aircraft Type:B763/F
PAX:210
Departing Airport: KIAD
Destination Airport: LEBL
Alternate Airport:LEPA
Online: VATSIM
Route:MXE J75 BOS J575 TUSKY 4561N 4655N 4746N 4731N 4622N 4516N HIDRA UN733 STG UN725 LOBAR
Flight Level:F380
No Slew and time accel
No pause
Crash detect
Detect pilot in Cockpit between each 30 and 45 minutes
07:37 Zero fuel Weight: 245254 Lbs, Fuel Weight: 100317 Lbs
07:37 VATSIM:KIAD 100652Z 01004KT 10SM CLR M02/M09 A3040 RMK AO2 SLP298 T10171094
07:37 VATSIM:LEBL 100700Z 33008KT 9999 FEW020 04/01 Q1016 NOSIG
07:37 VOICE CATALONIAN
07:38 Parking Brakes off
07:44 Take-off
07:44 Take off Weight: 343806 Lbs
07:44 Wind: 019º @ 004 Knots Heading: 001º
07:44 POS N38º 57´ 20´´ W077º 27´ 34´´
07:44 Flaps:2 at 174 Knots
07:44 Gear Up: 177 Knots
07:45 Flaps:1 at 180 Knots
07:45 Flaps:0 at 208 Knots
07:59 Wind:300º@090 Knots Heading: 049º Ground Speed: 499 Knots Altitude 33152 ft
08:14 Wind:302º@103 Knots Heading: 039º Ground Speed: 486 Knots Altitude 34399 ft
08:29 Wind:308º@079 Knots Heading: 064º Ground Speed: 503 Knots Altitude 34255 ft
08:44 Wind:292º@048 Knots Heading: 063º Ground Speed: 501 Knots Altitude 34232 ft
08:59 Wind:297º@032 Knots Heading: 067º Ground Speed: 487 Knots Altitude 33858 ft
09:14 Wind:262º@017 Knots Heading: 071º Ground Speed: 489 Knots Altitude 33641 ft
09:29 Wind:205º@035 Knots Heading: 077º Ground Speed: 496 Knots Altitude 33513 ft
09:44 Wind:200º@061 Knots Heading: 083º Ground Speed: 502 Knots Altitude 33497 ft
09:59 Wind:195º@094 Knots Heading: 089º Ground Speed: 499 Knots Altitude 33517 ft
10:14 Wind:205º@103 Knots Heading: 089º Ground Speed: 521 Knots Altitude 33740 ft
10:29 Wind:220º@102 Knots Heading: 090º Ground Speed: 538 Knots Altitude 33792 ft
10:44 Wind:219º@097 Knots Heading: 094º Ground Speed: 524 Knots Altitude 35167 ft
10:59 Wind:244º@089 Knots Heading: 091º Ground Speed: 543 Knots Altitude 35895 ft
11:14 Wind:278º@092 Knots Heading: 088º Ground Speed: 554 Knots Altitude 35997 ft
11:29 Wind:276º@094 Knots Heading: 091º Ground Speed: 555 Knots Altitude 35980 ft
11:44 Wind:295º@096 Knots Heading: 089º Ground Speed: 549 Knots Altitude 35971 ft
11:59 Wind:304º@076 Knots Heading: 093º Ground Speed: 529 Knots Altitude 36007 ft
12:14 Wind:311º@090 Knots Heading: 094º Ground Speed: 536 Knots Altitude 36197 ft
12:29 Wind:300º@083 Knots Heading: 097º Ground Speed: 539 Knots Altitude 36151 ft
12:44 Wind:316º@078 Knots Heading: 097º Ground Speed: 525 Knots Altitude 35918 ft
12:59 Wind:299º@087 Knots Heading: 101º Ground Speed: 548 Knots Altitude 35908 ft
13:14 Wind:296º@071 Knots Heading: 102º Ground Speed: 526 Knots Altitude 35974 ft
13:29 Wind:283º@092 Knots Heading: 118º Ground Speed: 547 Knots Altitude 35971 ft
13:44 Wind:288º@086 Knots Heading: 093º Ground Speed: 542 Knots Altitude 35935 ft
13:59 Wind:275º@099 Knots Heading: 097º Ground Speed: 560 Knots Altitude 35836 ft
14:14 Wind:283º@062 Knots Heading: 106º Ground Speed: 519 Knots Altitude 35879 ft
14:29 Wind:308º@052 Knots Heading: 096º Ground Speed: 506 Knots Altitude 35912 ft
14:41 Flaps:1 at 197 Knots
14:41 Flaps:2 at 196 Knots
14:44 Wind:314º@033 Knots Heading: 077º Ground Speed: 322 Knots Altitude 18608 ft
14:44 Flaps:1 at 230 Knots
14:45 Flaps:0 at 251 Knots
14:48 Flaps:1 at 208 Knots
14:48 Flaps:2 at 207 Knots
14:53 Flaps:1 at 229 Knots
14:56 Flaps:2 at 186 Knots
14:56 Flaps:3 at 179 Knots
14:58 Flaps:4 at 164 Knots
14:58 Gear Down: 162 Knots
14:59 Wind:222º@020 Knots Heading: 241º Ground Speed: 150 Knots Altitude 2099 ft
15:00 Flaps:5 at 151 Knots
15:00 Flaps:6 at 149 Knots
15:02 TouchDown:Rate -352 ft/min Speed: 119 Knots
15:02 VATSIM:LEBL 101430Z 23015KT 9999 FEW020 14/05 Q1010 NOSIG
15:02 Land
15:02 Wind:222º@021 Knots
15:02 Heading: 242º
15:02 Flight Duration: 07:18
15:02 Landing Weight: 265878 Lbs
15:02 POS N41º 18´ 00´´ E002º 05´ 15´´
15:05 Parking brakes on
15:05 Block to Block Duration: 07:27
15:05 Final Fuel: 20079 Lbls
15:05 Spent Fuel: 80238 Lbls
15:05 Flight Length: 3667 NM
15:05 TOD Land Length: 3667 NM

Exportar CSV

Powered by Drupal - Modified by Danger4k